X  Schließen Metar Luftfahrt Wetterdaten     EKVJ Stauning
Temperatur
7°C Temperatur
6°C Taupunkt
93% Feuchtigkeit



Wind
6 M/S
14 MPH
23 KM/H
12 KTS



260°
West
Aktuelle Wetterlage

Teilweise bewölkt Teilweise bewölkt
Luftdruck 1006.92 (hPa) - 29.73 (inHg)
Sichtweite 6.2 (Meile) - 10 (km)
Flughafen
Flughafen Code EKVJ

Position : Stauning
Entfernung: 14 (km)

Metar:
EKVJ 191450Z 26012KT 9999 FEW015 BKN020 07/06 Q1007

Zeit: 02-19-2020 15:50 CET